Main page
METAR-TAF:

METAR-TAF

Airports :

Andravida, Greece

latitude: 37-55N, longitude: 021-17E, elevation: 10 m

Current weather observation

The report was made 17 minutes ago, at 03:50 UTC
Wind 3 kt from variable directions
Temperature 14°C
Humidity 88%
Pressure 1009 hPa
Visibility 10 km or more
Few clouds at a height of 3000 ft

METAR: LGAD 030350Z VRB03KT 9999 FEW030 14/12 Q1009

Time: 07:07 (04:07 UTC)

Forecast

The report was made 2 hours and 7 minutes ago, at 02:00 UTC
Forecast valid from 03 at 03 UTC to 03 at 12 UTC
Wind 8 kt from the Northwest
Visibility 10 km or more
Scattered clouds at a height of 2500 ft

TAF: LGAD 030200Z 0303/0312 32008KT 9999 SCT025

Weather observations and forecasts of more than 4000 airports (METAR and TAF reports).

The available stations are represented by yellow and red dots on the map.

Hover mouse over dot to see the name of the station.

Then click to see weather observations and forecasts.

To change the map : click on the green buttons with a black cross to zoom in, on the green button with a dash to zoom out, or on the green arrows for adjacent maps.


METAR-TAF: